ENAT/ALF METAR and TAF weather

Enter ICAO airport designator
Station Type Date Time Source
ENAT METAR 2021/04/13 07:20 UTC NOAA

ENAT 130720Z 09003KT 060V120 CAVOK M03/M11 Q1017 RMK WIND 700FT 15008KT


Station Type Date Time Source
ENAT Decoded METAR 2021/04/13 07:20 UTC NOAA

Alta Lufthavn, Norway (ENAT) 69-59N 023-22E 3M
Apr 13, 2021 - 03:20 AM EDT / 2021.04.13 0720 UTC
Wind: from the E (090 degrees) at 3 MPH (3 KT) (direction variable):0
Visibility: greater than 7 mile(s):0
Temperature: 26 F (-3 C)
Dew Point: 12 F (-11 C)
Relative Humidity: 53%
Pressure (altimeter): 30.03 in. Hg (1017 hPa)
ob: ENAT 130720Z 09003KT 060V120 CAVOK M03/M11 Q1017 RMK WIND 700FT 15008KT
cycle: 7

Station Type Date Time Source
ENAT TAF 2008/11/30 23:00 UTC NOAA

TAF TAF ENAT 302300Z 3023/0102 22005KT 7000 -SN FEW008 BKN020
TEMPO 3023/0102 3000 -SN VV012

Example: see airport list